createdAt,value
2018-10-01T00:00:39.533Z,46219.30
2018-10-01T00:02:45.321Z,46192.20
2018-10-01T00:04:50.734Z,46208.65
2018-10-01T00:06:55.775Z,46196.07
2018-10-01T00:09:03.849Z,46191.23
2018-10-01T00:11:08.852Z,46211.55
2018-10-01T00:13:14.249Z,46207.68
2018-10-01T00:15:19.838Z,46198.00
2018-10-01T00:17:25.108Z,46188.33
2018-10-01T00:19:35.226Z,46191.23
2018-10-01T00:21:45.242Z,46183.49
2018-10-01T00:23:50.253Z,46202.84
2018-10-01T00:25:55.017Z,46167.04
2018-10-01T00:28:00.053Z,46187.36
2018-10-01T00:30:05.152Z,46173.81
2018-10-01T00:32:09.917Z,46186.39
2018-10-01T00:34:14.899Z,46179.62
2018-10-01T00:36:19.935Z,46184.46
2018-10-01T00:38:24.684Z,46189.30
2018-10-01T00:40:29.595Z,46175.75
2018-10-01T00:42:34.638Z,46204.78
2018-10-01T00:44:39.783Z,46203.81
2018-10-01T00:46:44.999Z,46201.88
2018-10-01T00:48:50.145Z,46204.78
2018-10-01T00:50:55.182Z,46198.97
2018-10-01T00:53:00.303Z,46196.07
2018-10-01T00:55:05.042Z,46173.81
2018-10-01T00:57:09.823Z,46194.13
2018-10-01T00:59:14.955Z,46193.17
2018-10-01T01:01:20.029Z,46200.91
2018-10-01T01:03:24.848Z,46171.87
2018-10-01T01:05:29.935Z,46174.78
2018-10-01T01:07:35.060Z,46187.36
2018-10-01T01:09:40.184Z,46190.27
2018-10-01T01:11:45.407Z,46191.23
2018-10-01T01:13:50.241Z,46173.81
2018-10-01T01:15:55.394Z,46177.68
2018-10-01T01:18:00.401Z,46177.68
2018-10-01T01:20:05.323Z,46174.78
2018-10-01T01:22:10.580Z,46182.52
2018-10-01T01:24:15.730Z,46175.75
2018-10-01T01:26:20.765Z,46186.39
2018-10-01T01:28:25.928Z,46170.91
2018-10-01T01:30:30.865Z,46197.04
2018-10-01T01:32:35.764Z,46210.59
2018-10-01T01:34:40.565Z,46180.59
2018-10-01T01:36:45.764Z,46168.97
2018-10-01T01:38:50.761Z,46185.43
2018-10-01T01:40:55.903Z,46185.43
2018-10-01T01:43:00.969Z,46186.39
2018-10-01T01:45:06.076Z,46165.10
2018-10-01T01:47:11.025Z,46172.84
2018-10-01T01:49:16.050Z,46167.04
2018-10-01T01:51:20.958Z,46192.20
2018-10-01T01:53:26.094Z,46187.36
2018-10-01T01:55:30.878Z,46171.87
2018-10-01T01:57:35.564Z,46174.78
2018-10-01T01:59:40.279Z,46169.94
2018-10-01T02:01:45.522Z,46175.75
2018-10-01T02:03:50.377Z,46158.33
2018-10-01T02:05:55.419Z,46166.07
2018-10-01T02:08:00.317Z,46190.27
2018-10-01T02:10:05.145Z,46176.71
2018-10-01T02:12:09.939Z,46181.55
2018-10-01T02:14:15.093Z,46168.01
2018-10-01T02:16:20.033Z,46173.81
2018-10-01T02:18:25.318Z,46174.78
2018-10-01T02:20:30.532Z,46171.87
2018-10-01T02:22:35.217Z,46175.75
2018-10-01T02:24:39.880Z,46165.10
2018-10-01T02:26:44.766Z,46171.87
2018-10-01T02:28:49.531Z,46171.87
2018-10-01T02:30:54.677Z,46176.71
2018-10-01T02:32:59.374Z,46190.27
2018-10-01T02:37:17.484Z,46177.68
2018-10-01T02:39:22.654Z,46161.23
2018-10-01T02:41:27.362Z,46174.78
2018-10-01T02:43:32.268Z,46182.52
2018-10-01T02:45:37.084Z,46170.91
2018-10-01T02:47:42.180Z,46170.91
2018-10-01T02:49:47.027Z,46169.94
2018-10-01T02:51:57.171Z,46155.43
2018-10-01T02:54:07.860Z,46167.04
2018-10-01T02:56:13.085Z,46154.46
2018-10-01T02:58:18.064Z,46152.52
2018-10-01T03:00:22.987Z,46164.14
2018-10-01T03:02:28.214Z,46158.33
2018-10-01T03:04:33.268Z,46178.65
2018-10-01T03:06:38.411Z,46160.27
2018-10-01T03:08:43.528Z,46153.49
2018-10-01T03:10:48.636Z,46162.20
2018-10-01T03:12:53.707Z,46178.65
2018-10-01T03:14:58.786Z,46159.30
2018-10-01T03:17:03.940Z,46155.43
2018-10-01T03:19:09.109Z,46175.75
2018-10-01T03:21:14.365Z,46158.33
2018-10-01T03:23:19.486Z,46157.36
2018-10-01T03:25:24.572Z,46174.78
2018-10-01T03:27:29.592Z,46143.81
2018-10-01T03:29:34.797Z,46158.33
2018-10-01T03:31:39.845Z,46175.75
2018-10-01T03:33:44.887Z,46180.59
2018-10-01T03:35:49.912Z,46163.17
2018-10-01T03:37:54.902Z,46151.55
2018-10-01T03:40:00.006Z,46174.78
2018-10-01T03:42:05.240Z,46171.87
2018-10-01T03:44:10.489Z,46160.27
2018-10-01T03:46:15.477Z,46167.04
2018-10-01T03:48:20.506Z,46166.07
2018-10-01T03:50:25.637Z,46158.33
2018-10-01T03:52:30.695Z,46165.10
2018-10-01T03:54:35.700Z,46168.01
2018-10-01T03:56:40.725Z,46154.46
2018-10-01T03:58:45.764Z,46170.91
2018-10-01T04:00:50.464Z,46162.20
2018-10-01T04:02:55.223Z,46168.97
2018-10-01T04:05:00.273Z,46154.46
2018-10-01T04:07:05.524Z,46160.27
2018-10-01T04:09:10.773Z,46128.33
2018-10-01T04:11:15.804Z,46142.84
2018-10-01T04:13:21.134Z,46151.55
2018-10-01T04:15:27.222Z,46171.87
2018-10-01T04:17:32.227Z,46177.68
2018-10-01T04:19:37.066Z,46159.30
2018-10-01T04:21:41.856Z,46171.87
2018-10-01T04:23:47.029Z,46175.75
2018-10-01T04:25:52.034Z,46168.97
2018-10-01T04:27:56.907Z,46158.33
2018-10-01T04:30:01.713Z,46151.55
2018-10-01T04:32:06.523Z,46179.62
2018-10-01T04:34:11.498Z,46152.52
2018-10-01T04:36:16.743Z,46171.87
2018-10-01T04:38:21.882Z,46175.75
2018-10-01T04:40:26.618Z,46156.39
2018-10-01T04:42:31.325Z,46158.33
2018-10-01T04:44:36.361Z,46169.94
2018-10-01T04:46:42.044Z,46154.46
2018-10-01T04:48:47.088Z,46175.75
2018-10-01T04:50:52.102Z,46168.01
2018-10-01T04:52:57.073Z,46151.55
2018-10-01T04:55:01.980Z,46163.17
2018-10-01T04:57:07.088Z,46146.71
2018-10-01T04:59:12.197Z,46163.17
2018-10-01T05:01:17.260Z,46172.84
2018-10-01T05:03:22.427Z,46150.59
2018-10-01T05:05:27.502Z,46181.55
2018-10-01T05:07:32.428Z,46194.13
2018-10-01T05:09:37.256Z,46168.01
2018-10-01T05:11:41.978Z,46166.07
2018-10-01T05:13:47.206Z,46158.33
2018-10-01T05:15:52.531Z,46173.81
2018-10-01T05:17:57.696Z,46163.17
2018-10-01T05:20:02.649Z,46169.94
2018-10-01T05:22:07.380Z,46161.23
2018-10-01T05:24:12.254Z,46172.84
2018-10-01T05:26:17.233Z,46144.78
2018-10-01T05:28:23.334Z,46173.81
2018-10-01T05:30:28.484Z,46162.20
2018-10-01T05:32:33.238Z,46138.01
2018-10-01T05:34:38.448Z,46157.36
2018-10-01T05:36:43.429Z,46165.10
2018-10-01T05:38:48.416Z,46164.14
2018-10-01T05:40:58.072Z,46161.23
2018-10-01T05:43:03.194Z,46168.01
2018-10-01T05:45:08.611Z,46149.62
2018-10-01T05:47:13.768Z,46166.07
2018-10-01T05:49:19.259Z,46139.94
2018-10-01T05:51:24.508Z,46179.62
2018-10-01T05:53:29.779Z,46160.27
2018-10-01T05:55:35.144Z,46182.52
2018-10-01T05:57:40.003Z,46160.27
2018-10-01T05:59:45.575Z,46165.10
2018-10-01T06:01:50.952Z,46152.52
2018-10-01T06:03:56.250Z,46164.14
2018-10-01T06:06:01.268Z,46158.33
2018-10-01T06:08:06.083Z,46169.94
2018-10-01T06:10:11.069Z,46158.33
2018-10-01T06:12:17.441Z,46174.78
2018-10-01T06:14:22.982Z,46158.33
2018-10-01T06:16:29.010Z,46144.78
2018-10-01T06:18:34.515Z,46176.71
2018-10-01T06:20:39.739Z,46163.17
2018-10-01T06:22:44.607Z,46142.84
2018-10-01T06:24:49.688Z,46170.91
2018-10-01T06:26:54.784Z,46146.71
2018-10-01T06:28:59.928Z,46153.49
2018-10-01T06:31:05.140Z,46157.36
2018-10-01T06:33:10.858Z,46161.23
2018-10-01T06:35:16.155Z,46163.17
2018-10-01T06:37:21.873Z,46150.59
2018-10-01T06:39:26.684Z,46157.36
2018-10-01T06:41:31.521Z,46149.62
2018-10-01T06:43:36.280Z,46180.59
2018-10-01T06:45:41.255Z,46139.94
2018-10-01T06:47:46.118Z,46154.46
2018-10-01T06:49:51.159Z,46161.23
2018-10-01T06:51:56.203Z,46158.33
2018-10-01T06:54:01.403Z,46170.91
2018-10-01T06:56:06.189Z,46149.62
2018-10-01T06:58:11.172Z,46166.07
2018-10-01T07:00:16.891Z,46152.52
2018-10-01T07:02:21.916Z,46160.27
2018-10-01T07:04:26.648Z,46172.84
2018-10-01T07:06:31.405Z,46160.27
2018-10-01T07:08:36.421Z,46163.17
2018-10-01T07:10:41.217Z,46170.91
2018-10-01T07:12:45.966Z,46168.97
2018-10-01T07:14:51.049Z,46165.10
2018-10-01T07:16:56.189Z,46174.78
2018-10-01T07:19:01.468Z,46160.27
2018-10-01T07:21:06.413Z,46165.10
2018-10-01T07:23:11.507Z,46154.46
2018-10-01T07:25:16.506Z,46153.49
2018-10-01T07:27:21.427Z,46168.01
2018-10-01T07:29:26.412Z,46156.39
2018-10-01T07:31:31.399Z,46158.33
2018-10-01T07:33:36.306Z,46155.43
2018-10-01T07:35:41.317Z,46154.46
2018-10-01T07:37:46.079Z,46155.43
2018-10-01T07:39:51.033Z,46159.30
2018-10-01T07:41:55.742Z,46153.49
2018-10-01T07:44:00.493Z,46182.52
2018-10-01T07:46:05.368Z,46176.71
2018-10-01T07:48:10.387Z,46156.39
2018-10-01T07:50:17.478Z,46178.65
2018-10-01T07:52:22.232Z,46151.55
2018-10-01T07:54:27.234Z,46168.97
2018-10-01T07:56:32.047Z,46168.97
2018-10-01T07:58:37.285Z,46130.27
2018-10-01T08:00:42.236Z,46160.27
2018-10-01T08:02:47.398Z,46160.27
2018-10-01T08:04:52.237Z,46165.10
2018-10-01T08:06:57.332Z,46179.62
2018-10-01T08:09:02.545Z,46191.23
2018-10-01T08:11:08.005Z,46169.94
2018-10-01T08:13:13.182Z,46161.23
2018-10-01T08:15:18.385Z,46183.49
2018-10-01T08:17:23.523Z,46185.43
2018-10-01T08:19:28.373Z,46177.68
2018-10-01T08:21:33.263Z,46168.01
2018-10-01T08:23:38.348Z,46176.71
2018-10-01T08:25:43.290Z,46173.81
2018-10-01T08:27:48.343Z,46165.10
2018-10-01T08:29:53.242Z,46190.27
2018-10-01T08:31:57.945Z,46167.04
2018-10-01T08:34:02.903Z,46171.87
2018-10-01T08:36:08.035Z,46190.27
2018-10-01T08:38:12.961Z,46178.65
2018-10-01T08:40:17.678Z,46184.46
2018-10-01T08:42:22.815Z,46197.04
2018-10-01T08:44:27.715Z,46192.20
2018-10-01T08:46:32.452Z,46182.52
2018-10-01T08:48:39.633Z,46194.13
2018-10-01T08:50:49.885Z,46200.91
2018-10-01T08:52:58.905Z,46192.20
2018-10-01T08:55:04.014Z,46199.94
2018-10-01T08:57:08.799Z,46209.62
2018-10-01T08:59:13.649Z,46182.52
2018-10-01T09:01:18.541Z,46206.71
2018-10-01T09:03:23.363Z,46179.62
2018-10-01T09:05:28.342Z,46215.43
2018-10-01T09:07:33.329Z,46203.81
2018-10-01T09:09:37.943Z,46231.87
2018-10-01T09:11:42.946Z,46197.04
2018-10-01T09:13:47.956Z,46209.62
2018-10-01T09:15:52.713Z,46208.65
2018-10-01T09:17:57.463Z,46201.88
2018-10-01T09:20:02.625Z,46203.81
2018-10-01T09:22:07.603Z,46184.46
2018-10-01T09:24:12.709Z,46198.97
2018-10-01T09:26:17.761Z,46201.88
2018-10-01T09:28:22.382Z,46207.68
2018-10-01T09:30:27.264Z,46216.39
2018-10-01T09:32:32.714Z,46241.55
2018-10-01T09:34:37.663Z,46217.36
2018-10-01T09:36:42.468Z,46228.01
2018-10-01T09:38:47.634Z,46208.65
2018-10-01T09:40:52.795Z,46230.91
2018-10-01T09:42:57.601Z,46225.10
2018-10-01T09:45:02.687Z,46221.23
2018-10-01T09:47:07.676Z,46219.30
2018-10-01T09:49:12.631Z,46213.49
2018-10-01T09:51:17.579Z,46211.55
2018-10-01T09:53:22.564Z,46216.39
2018-10-01T09:55:27.630Z,46210.59
2018-10-01T09:57:33.087Z,46216.39
2018-10-01T09:59:38.000Z,46228.01
2018-10-01T10:01:43.226Z,46206.71
2018-10-01T10:03:48.416Z,46234.78
2018-10-01T10:05:53.543Z,46222.20
2018-10-01T10:07:58.466Z,46230.91
2018-10-01T10:10:03.666Z,46240.59
2018-10-01T10:12:08.292Z,46218.33
2018-10-01T10:14:14.384Z,46237.68
2018-10-01T10:16:19.669Z,46218.33
2018-10-01T10:18:24.736Z,46234.78
2018-10-01T10:20:29.871Z,46245.43
2018-10-01T10:22:35.038Z,46240.59
2018-10-01T10:24:39.787Z,46231.87
2018-10-01T10:26:45.246Z,46221.23
2018-10-01T10:28:50.064Z,46228.97
2018-10-01T10:30:54.887Z,46224.13
2018-10-01T10:33:00.223Z,46244.46
2018-10-01T10:35:05.091Z,46215.43
2018-10-01T10:37:09.883Z,46251.23
2018-10-01T10:39:15.054Z,46242.52
2018-10-01T10:41:19.955Z,46212.52
2018-10-01T10:43:25.040Z,46245.43
2018-10-01T10:45:29.881Z,46238.65
2018-10-01T10:47:34.990Z,46238.65
2018-10-01T10:49:40.056Z,46227.04
2018-10-01T10:51:44.886Z,46214.46
2018-10-01T10:53:49.957Z,46214.46
2018-10-01T10:55:55.127Z,46217.36
2018-10-01T10:58:00.155Z,46231.87
2018-10-01T11:00:05.107Z,46228.97
2018-10-01T11:02:10.003Z,46214.46
2018-10-01T11:04:14.931Z,46238.65
2018-10-01T11:06:20.089Z,46235.75
2018-10-01T11:08:25.316Z,46220.26
2018-10-01T11:10:30.022Z,46229.94
2018-10-01T11:12:35.138Z,46238.65
2018-10-01T11:14:40.392Z,46225.10
2018-10-01T11:16:45.323Z,46223.17
2018-10-01T11:18:50.542Z,46229.94
2018-10-01T11:20:55.293Z,46229.94
2018-10-01T11:23:00.154Z,46231.87
2018-10-01T11:25:05.031Z,46217.36
2018-10-01T11:27:10.154Z,46221.23
2018-10-01T11:29:15.713Z,46230.91
2018-10-01T11:31:20.730Z,46223.17
2018-10-01T11:33:25.643Z,46221.23
2018-10-01T11:35:30.534Z,46216.39
2018-10-01T11:37:35.415Z,46239.62
2018-10-01T11:39:40.668Z,46198.97
2018-10-01T11:41:46.193Z,46198.00
2018-10-01T11:43:51.157Z,46198.97
2018-10-01T11:45:55.822Z,46175.75
2018-10-01T11:48:01.270Z,46172.84
2018-10-01T11:50:06.542Z,46176.71
2018-10-01T11:52:11.487Z,46189.30
2018-10-01T11:54:16.411Z,46174.78
2018-10-01T11:56:22.172Z,46173.81
2018-10-01T11:58:27.181Z,46165.10
2018-10-01T12:00:32.014Z,46190.27
2018-10-01T12:02:36.789Z,46174.78
2018-10-01T12:04:42.018Z,46170.91
2018-10-01T12:06:46.877Z,46186.39
2018-10-01T12:08:52.069Z,46164.14
2018-10-01T12:10:57.244Z,46171.87
2018-10-01T12:13:02.142Z,46199.94
2018-10-01T12:15:08.547Z,46189.30
2018-10-01T12:17:14.008Z,46180.59
2018-10-01T12:19:19.155Z,46176.71
2018-10-01T12:21:24.254Z,46205.75
2018-10-01T12:23:30.417Z,46165.10
2018-10-01T12:25:35.617Z,46187.36
2018-10-01T12:27:40.567Z,46201.88
2018-10-01T12:29:45.937Z,46181.55
2018-10-01T12:31:51.492Z,46171.87
2018-10-01T12:33:56.842Z,46207.68
2018-10-01T12:36:02.097Z,46189.30
2018-10-01T12:38:07.379Z,46199.94
2018-10-01T12:40:12.589Z,46219.30
2018-10-01T12:42:17.899Z,46203.81
2018-10-01T12:44:26.042Z,46204.78
2018-10-01T12:46:31.227Z,46196.07
2018-10-01T12:48:36.577Z,46199.94
2018-10-01T12:50:41.718Z,46208.65
2018-10-01T12:52:46.524Z,46205.75
2018-10-01T12:54:51.293Z,46169.94
2018-10-01T12:56:56.510Z,46186.39
2018-10-01T12:59:01.232Z,46168.97
2018-10-01T13:01:06.076Z,46185.43
2018-10-01T13:03:11.275Z,46185.43
2018-10-01T13:05:16.500Z,46162.20
2018-10-01T13:07:21.296Z,46160.27
2018-10-01T13:09:26.177Z,46167.04
2018-10-01T13:11:31.706Z,46179.62
2018-10-01T13:13:36.868Z,46173.81
2018-10-01T13:15:41.659Z,46188.33
2018-10-01T13:17:46.906Z,46188.33
2018-10-01T13:19:52.102Z,46173.81
2018-10-01T13:21:57.346Z,46181.55
2018-10-01T13:24:02.493Z,46194.13
2018-10-01T13:26:07.273Z,46186.39
2018-10-01T13:28:12.317Z,46196.07
2018-10-01T13:30:17.648Z,46201.88
2018-10-01T13:32:22.388Z,46196.07
2018-10-01T13:34:27.382Z,46207.68
2018-10-01T13:36:32.244Z,46205.75
2018-10-01T13:38:43.328Z,46211.55
2018-10-01T13:40:48.199Z,46201.88
2018-10-01T13:42:53.037Z,46211.55
2018-10-01T13:44:57.932Z,46207.68
2018-10-01T13:47:02.776Z,46223.17
2018-10-01T13:49:07.510Z,46203.81
2018-10-01T13:51:13.079Z,46208.65
2018-10-01T13:53:18.339Z,46228.01
2018-10-01T13:55:23.430Z,46211.55
2018-10-01T13:57:28.398Z,46208.65
2018-10-01T13:59:33.654Z,46210.59
2018-10-01T14:01:38.424Z,46212.52
2018-10-01T14:03:44.989Z,46206.71
2018-10-01T14:05:50.130Z,46230.91
2018-10-01T14:07:55.134Z,46212.52
2018-10-01T14:09:59.927Z,46219.30
2018-10-01T14:12:05.082Z,46242.52
2018-10-01T14:14:09.864Z,46238.65
2018-10-01T14:16:14.755Z,46233.81
2018-10-01T14:18:21.439Z,46238.65
2018-10-01T14:20:26.305Z,46238.65
2018-10-01T14:22:31.311Z,46224.13
2018-10-01T14:24:36.252Z,46203.81
2018-10-01T14:26:41.090Z,46198.97
2018-10-01T14:28:47.470Z,46208.65
2018-10-01T14:30:52.452Z,46198.00
2018-10-01T14:32:57.323Z,46204.78
2018-10-01T14:35:02.691Z,46192.20
2018-10-01T14:37:08.110Z,46193.17
2018-10-01T14:39:13.400Z,46193.17
2018-10-01T14:41:18.584Z,46189.30
2018-10-01T14:43:25.057Z,46192.20
2018-10-01T14:45:30.295Z,46200.91
2018-10-01T14:47:35.562Z,46202.84
2018-10-01T14:49:40.969Z,46205.75
2018-10-01T14:51:46.286Z,46200.91
2018-10-01T14:53:51.460Z,46211.55
2018-10-01T14:55:56.564Z,46197.04
2018-10-01T14:58:02.015Z,46180.59
2018-10-01T15:00:08.202Z,46207.68
2018-10-01T15:02:13.399Z,46182.52
2018-10-01T15:04:18.218Z,46228.01
2018-10-01T15:06:23.561Z,46198.97
2018-10-01T15:08:28.907Z,46197.04
2018-10-01T15:10:33.812Z,46198.97
2018-10-01T15:12:38.801Z,46190.27
2018-10-01T15:14:44.240Z,46188.33
2018-10-01T15:16:49.497Z,46183.49
2018-10-01T15:18:54.561Z,46182.52
2018-10-01T15:20:59.607Z,46180.59
2018-10-01T15:23:04.876Z,46200.91
2018-10-01T15:25:09.910Z,46194.13
2018-10-01T15:27:14.897Z,46196.07
2018-10-01T15:29:21.751Z,46198.97
2018-10-01T15:31:27.850Z,46192.20
2018-10-01T15:33:33.251Z,46182.52
2018-10-01T15:35:38.203Z,46203.81
2018-10-01T15:37:43.073Z,46190.27
2018-10-01T15:39:47.853Z,46221.23
2018-10-01T15:41:52.830Z,46195.10
2018-10-01T15:43:57.938Z,46200.91
2018-10-01T15:46:02.895Z,46190.27
2018-10-01T15:48:07.783Z,46186.39
2018-10-01T15:50:13.041Z,46197.04
2018-10-01T15:52:18.039Z,46182.52
2018-10-01T15:54:23.269Z,46214.46
2018-10-01T15:56:28.160Z,46227.04
2018-10-01T15:58:33.343Z,46196.07
2018-10-01T16:00:38.885Z,46201.88
2018-10-01T16:02:46.003Z,46186.39
2018-10-01T16:04:51.305Z,46193.17
2018-10-01T16:06:56.091Z,46205.75
2018-10-01T16:09:00.974Z,46172.84
2018-10-01T16:11:05.762Z,46173.81
2018-10-01T16:13:11.109Z,46168.01
2018-10-01T16:15:16.112Z,46197.04
2018-10-01T16:17:21.010Z,46187.36
2018-10-01T16:19:26.377Z,46160.27
2018-10-01T16:21:31.500Z,46171.87
2018-10-01T16:23:36.726Z,46170.91
2018-10-01T16:25:42.134Z,46181.55
2018-10-01T16:27:47.155Z,46165.10
2018-10-01T16:29:52.931Z,46170.91
2018-10-01T16:31:58.144Z,46162.20
2018-10-01T16:34:03.149Z,46170.91
2018-10-01T16:36:09.087Z,46158.33
2018-10-01T16:38:14.215Z,46177.68
2018-10-01T16:40:19.199Z,46180.59
2018-10-01T16:42:24.886Z,46174.78
2018-10-01T16:44:29.776Z,46164.14
2018-10-01T16:46:34.735Z,46181.55
2018-10-01T16:48:39.485Z,46170.91
2018-10-01T16:50:44.520Z,46162.20
2018-10-01T16:52:49.498Z,46164.14
2018-10-01T16:54:54.300Z,46171.87
2018-10-01T16:56:59.144Z,46150.59
2018-10-01T16:59:03.899Z,46163.17
2018-10-01T17:01:08.700Z,46167.04
2018-10-01T17:03:13.555Z,46167.04
2018-10-01T17:05:18.708Z,46159.30
2018-10-01T17:07:24.781Z,46165.10
2018-10-01T17:09:30.024Z,46175.75
2018-10-01T17:11:35.007Z,46138.98
2018-10-01T17:13:40.288Z,46178.65
2018-10-01T17:15:45.719Z,46167.04
2018-10-01T17:17:50.649Z,46159.30
2018-10-01T17:19:55.568Z,46168.01
2018-10-01T17:22:00.463Z,46124.46
2018-10-01T17:24:05.403Z,46174.78
2018-10-01T17:26:10.241Z,46178.65
2018-10-01T17:28:15.487Z,46184.46
2018-10-01T17:30:21.951Z,46162.20
2018-10-01T17:32:27.282Z,46153.49
2018-10-01T17:34:32.293Z,46163.17
2018-10-01T17:36:37.753Z,46146.71
2018-10-01T17:38:47.180Z,46154.46
2018-10-01T17:40:52.188Z,46153.49
2018-10-01T17:42:57.804Z,46160.27
2018-10-01T17:45:03.407Z,46146.71
2018-10-01T17:47:08.428Z,46148.65
2018-10-01T17:49:16.140Z,46152.52
2018-10-01T17:51:21.205Z,46156.39
2018-10-01T17:53:34.481Z,46157.36
2018-10-01T17:55:39.589Z,46150.59
2018-10-01T17:57:45.077Z,46151.55
2018-10-01T17:59:50.381Z,46145.75
2018-10-01T18:01:56.384Z,46152.52
2018-10-01T18:04:02.934Z,46150.59
2018-10-01T18:06:08.181Z,46171.87
2018-10-01T18:08:34.206Z,46135.10
2018-10-01T18:12:58.537Z,46142.84
2018-10-01T18:15:04.054Z,46143.81
2018-10-01T18:17:09.296Z,46145.75
2018-10-01T18:19:15.010Z,46157.36
2018-10-01T18:21:22.453Z,46166.07
2018-10-01T18:23:30.355Z,46148.65
2018-10-01T18:25:38.759Z,46154.46
2018-10-01T18:27:43.805Z,46137.04
2018-10-01T18:29:49.613Z,46141.88
2018-10-01T18:34:19.260Z,46143.81
2018-10-01T18:36:27.322Z,46155.43
2018-10-01T18:38:35.763Z,46138.01
2018-10-01T18:40:42.745Z,46155.43
2018-10-01T18:42:49.925Z,46125.43
2018-10-01T18:44:55.492Z,46139.94
2018-10-01T18:47:01.102Z,46151.55
2018-10-01T18:49:08.645Z,46152.52
2018-10-01T18:51:17.199Z,46141.88
2018-10-01T18:53:24.851Z,46152.52
2018-10-01T18:55:38.360Z,46134.14
2018-10-01T18:57:47.519Z,46133.17
2018-10-01T19:00:00.317Z,46144.78
2018-10-01T19:02:11.465Z,46113.81
2018-10-01T19:04:19.867Z,46149.62
2018-10-01T19:06:29.298Z,46141.88
2018-10-01T19:08:41.951Z,46134.14
2018-10-01T19:13:04.092Z,46139.94
2018-10-01T19:15:25.462Z,46144.78
2018-10-01T19:19:59.959Z,46139.94
2018-10-01T19:22:13.144Z,46113.81
2018-10-01T19:24:29.736Z,46127.36
2018-10-01T19:26:38.277Z,46135.10
2018-10-01T19:30:56.793Z,46138.01
2018-10-01T19:33:05.092Z,46152.52
2018-10-01T19:35:16.407Z,46137.04
2018-10-01T19:37:24.421Z,46149.62
2018-10-01T19:39:33.852Z,46139.94
2018-10-01T19:41:50.938Z,46160.27
2018-10-01T19:44:13.239Z,46138.01
2018-10-01T19:46:29.606Z,46131.23
2018-10-01T19:48:44.256Z,46118.65
2018-10-01T19:54:08.092Z,46123.49
2018-10-01T19:56:21.449Z,46148.65
2018-10-01T19:58:32.733Z,46162.20
2018-10-01T20:00:44.916Z,46121.55
2018-10-01T20:02:52.988Z,46161.23
2018-10-01T20:05:01.071Z,46119.62
2018-10-01T20:07:08.526Z,46134.14
2018-10-01T20:09:27.885Z,46128.33
2018-10-01T20:11:33.535Z,46123.49
2018-10-01T20:13:49.366Z,46138.98
2018-10-01T20:15:54.675Z,46118.65
2018-10-01T20:18:01.812Z,46147.68
2018-10-01T20:20:07.356Z,46121.55
2018-10-01T20:22:15.026Z,46107.04
2018-10-01T20:24:35.443Z,46138.98
2018-10-01T20:26:45.750Z,46154.46
2018-10-01T20:28:52.240Z,46125.43
2018-10-01T20:31:00.675Z,46127.36
2018-10-01T20:33:09.317Z,46117.68
2018-10-01T20:35:22.566Z,46135.10
2018-10-01T20:37:27.747Z,46128.33
2018-10-01T20:39:35.477Z,46121.55
2018-10-01T20:41:43.035Z,46095.43
2018-10-01T20:43:48.100Z,46117.68
2018-10-01T20:45:53.356Z,46122.52
2018-10-01T20:47:58.741Z,46122.52
2018-10-01T20:50:04.490Z,46137.04
2018-10-01T20:52:14.885Z,46102.20
2018-10-01T20:54:21.626Z,46115.75
2018-10-01T20:56:30.298Z,46128.33
2018-10-01T20:58:37.533Z,46145.75
2018-10-01T21:00:43.724Z,46116.72
2018-10-01T21:02:49.854Z,46122.52
2018-10-01T21:04:57.670Z,46126.39
2018-10-01T21:07:03.579Z,46135.10
2018-10-01T21:09:11.532Z,46107.04
2018-10-01T21:11:16.606Z,46125.43
2018-10-01T21:13:21.905Z,46130.27
2018-10-01T21:15:26.845Z,46108.01
2018-10-01T21:17:31.801Z,46126.39
2018-10-01T21:19:36.870Z,46131.23
2018-10-01T21:21:41.992Z,46128.33
2018-10-01T21:23:48.722Z,46107.04
2018-10-01T21:25:54.254Z,46108.98
2018-10-01T21:28:01.255Z,46108.01
2018-10-01T21:30:06.782Z,46107.04
2018-10-01T21:32:12.200Z,46132.20
2018-10-01T21:34:17.041Z,46139.94
2018-10-01T21:36:22.053Z,46114.78
2018-10-01T21:38:27.130Z,46124.46
2018-10-01T21:40:32.190Z,46116.72
2018-10-01T21:42:38.223Z,46147.68
2018-10-01T21:44:43.467Z,46131.23
2018-10-01T21:46:48.464Z,46107.04
2018-10-01T21:48:54.592Z,46130.27
2018-10-01T21:50:59.683Z,46109.94
2018-10-01T21:53:04.704Z,46113.81
2018-10-01T21:55:09.967Z,46132.20
2018-10-01T21:57:15.114Z,46109.94
2018-10-01T21:59:20.168Z,46125.43
2018-10-01T22:01:31.929Z,46138.98
2018-10-01T22:03:36.827Z,46116.72
2018-10-01T22:05:41.609Z,46120.59
2018-10-01T22:08:02.935Z,46132.20
2018-10-01T22:10:07.945Z,46112.85
2018-10-01T22:12:12.900Z,46135.10
2018-10-01T22:14:17.889Z,46132.20
2018-10-01T22:16:26.776Z,46113.81
2018-10-01T22:18:31.658Z,46116.72
2018-10-01T22:20:36.429Z,46124.46
2018-10-01T22:22:41.238Z,46127.36
2018-10-01T22:24:46.908Z,46129.30
2018-10-01T22:26:52.363Z,46147.68
2018-10-01T22:29:00.253Z,46146.71
2018-10-01T22:31:05.015Z,46145.75
2018-10-01T22:33:10.040Z,46126.39
2018-10-01T22:35:14.894Z,46108.01
2018-10-01T22:37:19.757Z,46119.62
2018-10-01T22:39:24.749Z,46146.71
2018-10-01T22:41:29.721Z,46157.36
2018-10-01T22:43:37.819Z,46145.75
2018-10-01T22:45:43.019Z,46114.78
2018-10-01T22:47:48.103Z,46147.68
2018-10-01T22:49:52.984Z,46133.17
2018-10-01T22:51:58.161Z,46113.81
2018-10-01T22:54:04.382Z,46124.46
2018-10-01T22:56:09.419Z,46109.94
2018-10-01T22:58:14.242Z,46119.62
2018-10-01T23:00:19.073Z,46124.46
2018-10-01T23:02:24.300Z,46127.36
2018-10-01T23:04:29.219Z,46132.20
2018-10-01T23:06:34.278Z,46146.71
2018-10-01T23:08:39.168Z,46141.88
2018-10-01T23:10:44.054Z,46101.23
2018-10-01T23:12:49.191Z,46126.39
2018-10-01T23:14:54.165Z,46120.59
2018-10-01T23:16:58.977Z,46138.01
2018-10-01T23:19:04.602Z,46136.07
2018-10-01T23:21:09.454Z,46117.68
2018-10-01T23:23:14.349Z,46138.01
2018-10-01T23:25:19.171Z,46131.23
2018-10-01T23:27:24.121Z,46124.46
2018-10-01T23:29:29.047Z,46120.59
2018-10-01T23:31:34.202Z,46123.49
2018-10-01T23:33:39.120Z,46125.43
2018-10-01T23:35:44.419Z,46127.36
2018-10-01T23:37:53.916Z,46137.04
2018-10-01T23:39:59.008Z,46127.36
2018-10-01T23:42:04.321Z,46155.43
2018-10-01T23:44:09.491Z,46127.36
2018-10-01T23:46:14.273Z,46119.62
2018-10-01T23:48:19.208Z,46121.55
2018-10-01T23:50:26.466Z,46141.88
2018-10-01T23:52:31.738Z,46145.75
2018-10-01T23:56:47.653Z,46134.14
2018-10-01T23:58:52.324Z,46123.49
